createdAt,value
2022-11-08T00:02:15.074Z,7.80
2022-11-08T00:05:19.738Z,7.70
2022-11-08T00:08:24.289Z,7.70
2022-11-08T00:11:28.795Z,7.60
2022-11-08T00:14:14.652Z,7.60
2022-11-08T00:17:00.584Z,7.50
2022-11-08T00:19:46.700Z,7.40
2022-11-08T00:22:32.976Z,7.40
2022-11-08T00:25:18.876Z,7.30
2022-11-08T00:28:04.995Z,7.30
2022-11-08T00:30:51.073Z,7.30
2022-11-08T00:33:37.490Z,7.30
2022-11-08T00:36:23.385Z,7.40
2022-11-08T00:39:11.024Z,7.30
2022-11-08T00:41:57.626Z,7.10
2022-11-08T00:44:43.758Z,7.10
2022-11-08T00:47:29.756Z,6.90
2022-11-08T00:50:15.860Z,6.90
2022-11-08T00:53:01.752Z,6.90
2022-11-08T00:55:47.834Z,6.90
2022-11-08T00:58:33.792Z,7.00
2022-11-08T01:01:21.572Z,7.00
2022-11-08T01:04:09.526Z,6.90
2022-11-08T01:06:55.580Z,6.90
2022-11-08T01:09:41.569Z,6.90
2022-11-08T01:12:27.718Z,6.90
2022-11-08T01:15:13.812Z,6.80
2022-11-08T01:18:00.147Z,6.80
2022-11-08T01:20:47.783Z,6.80
2022-11-08T01:23:34.570Z,6.90
2022-11-08T01:26:26.862Z,6.80
2022-11-08T01:29:12.849Z,6.80
2022-11-08T01:31:58.791Z,6.70
2022-11-08T01:34:44.657Z,6.60
2022-11-08T01:37:30.548Z,6.50
2022-11-08T01:40:16.785Z,6.30
2022-11-08T01:43:30.657Z,6.20
2022-11-08T01:46:19.988Z,6.20
2022-11-08T01:49:19.017Z,6.30
2022-11-08T01:52:14.689Z,6.30
2022-11-08T01:55:16.116Z,6.20
2022-11-08T01:58:10.923Z,6.30
2022-11-08T02:00:59.864Z,6.30
2022-11-08T02:03:47.322Z,6.40
2022-11-08T02:06:37.203Z,6.40
2022-11-08T02:09:23.133Z,6.40
2022-11-08T02:12:10.622Z,6.30
2022-11-08T02:14:56.908Z,6.30
2022-11-08T02:17:43.206Z,6.10
2022-11-08T02:20:29.316Z,6.10
2022-11-08T02:23:41.498Z,6.00
2022-11-08T02:26:35.062Z,6.00
2022-11-08T02:29:33.222Z,5.90
2022-11-08T02:32:19.573Z,6.00
2022-11-08T02:35:10.570Z,6.00
2022-11-08T02:37:56.801Z,5.90
2022-11-08T02:40:58.200Z,5.80
2022-11-08T02:43:44.312Z,5.90
2022-11-08T02:46:30.265Z,5.90
2022-11-08T02:49:16.355Z,5.90
2022-11-08T02:52:02.189Z,5.90
2022-11-08T02:54:48.146Z,5.90
2022-11-08T02:57:34.103Z,5.90
2022-11-08T03:00:20.172Z,5.80
2022-11-08T03:03:06.699Z,5.80
2022-11-08T03:05:52.869Z,5.70
2022-11-08T03:08:38.710Z,5.70
2022-11-08T03:11:24.692Z,5.70
2022-11-08T03:14:10.616Z,5.70
2022-11-08T03:16:56.531Z,5.60
2022-11-08T03:19:42.449Z,5.50
2022-11-08T03:22:28.448Z,5.50
2022-11-08T03:25:14.635Z,5.60
2022-11-08T03:28:06.677Z,5.60
2022-11-08T03:30:53.195Z,5.50
2022-11-08T03:33:39.469Z,5.60
2022-11-08T03:36:26.401Z,5.50
2022-11-08T03:39:12.345Z,5.50
2022-11-08T03:42:02.873Z,5.30
2022-11-08T03:44:49.068Z,5.40
2022-11-08T03:47:39.681Z,5.50
2022-11-08T03:50:25.823Z,5.50
2022-11-08T03:53:11.762Z,5.40
2022-11-08T03:56:01.288Z,5.30
2022-11-08T03:58:47.215Z,5.30
2022-11-08T04:01:33.508Z,5.30
2022-11-08T04:04:19.630Z,5.40
2022-11-08T04:07:05.856Z,5.50
2022-11-08T04:09:52.060Z,5.40
2022-11-08T04:13:01.086Z,5.30
2022-11-08T04:15:51.224Z,5.30
2022-11-08T04:18:55.380Z,5.40
2022-11-08T04:21:50.888Z,5.50
2022-11-08T04:24:37.444Z,5.50
2022-11-08T04:27:23.476Z,5.50
2022-11-08T04:30:10.123Z,5.50
2022-11-08T04:32:55.972Z,5.40
2022-11-08T04:35:41.836Z,5.40
2022-11-08T04:38:27.830Z,5.40
2022-11-08T04:41:15.176Z,5.30
2022-11-08T04:44:01.016Z,5.10
2022-11-08T04:46:46.850Z,5.10
2022-11-08T04:49:33.061Z,5.10
2022-11-08T04:52:19.056Z,5.10
2022-11-08T04:55:05.644Z,5.20
2022-11-08T04:57:51.533Z,5.30
2022-11-08T05:00:37.724Z,5.30
2022-11-08T05:03:23.742Z,5.30
2022-11-08T05:06:14.972Z,5.20
2022-11-08T05:09:01.297Z,5.20
2022-11-08T05:11:47.247Z,5.10
2022-11-08T05:14:33.213Z,5.20
2022-11-08T05:17:19.080Z,5.20
2022-11-08T05:20:24.524Z,5.20
2022-11-08T05:23:25.537Z,5.10
2022-11-08T05:26:12.496Z,5.10
2022-11-08T05:28:58.621Z,5.00
2022-11-08T05:31:45.001Z,5.00
2022-11-08T05:34:31.283Z,5.00
2022-11-08T05:37:17.346Z,5.00
2022-11-08T05:40:03.664Z,5.00
2022-11-08T05:42:49.731Z,5.10
2022-11-08T05:45:35.744Z,5.00
2022-11-08T05:48:21.571Z,5.10
2022-11-08T05:51:07.822Z,5.00
2022-11-08T05:53:54.230Z,4.90
2022-11-08T05:56:40.382Z,4.90
2022-11-08T05:59:26.344Z,4.80
2022-11-08T06:02:12.416Z,4.80
2022-11-08T06:04:58.940Z,4.70
2022-11-08T06:07:45.034Z,4.80
2022-11-08T06:10:30.912Z,4.80
2022-11-08T06:13:17.391Z,4.80
2022-11-08T06:16:05.809Z,4.80
2022-11-08T06:18:52.109Z,4.80
2022-11-08T06:21:38.254Z,5.00
2022-11-08T06:24:24.259Z,5.00
2022-11-08T06:27:10.143Z,5.00
2022-11-08T06:29:56.560Z,5.00
2022-11-08T06:32:42.620Z,5.00
2022-11-08T06:35:28.468Z,5.00
2022-11-08T06:38:14.501Z,5.10
2022-11-08T06:41:01.420Z,5.20
2022-11-08T06:43:48.136Z,5.20
2022-11-08T06:46:34.410Z,5.20
2022-11-08T06:49:20.316Z,5.20
2022-11-08T06:52:06.247Z,5.40
2022-11-08T06:54:52.775Z,5.70
2022-11-08T06:57:38.999Z,6.30
2022-11-08T07:00:25.602Z,6.80
2022-11-08T07:03:12.647Z,7.60
2022-11-08T07:06:01.140Z,8.30
2022-11-08T07:08:47.101Z,8.80
2022-11-08T07:11:33.131Z,9.20
2022-11-08T07:14:19.131Z,9.50
2022-11-08T07:17:05.217Z,9.90
2022-11-08T07:19:51.168Z,10.20
2022-11-08T07:22:37.674Z,10.60
2022-11-08T07:25:24.594Z,10.60
2022-11-08T07:28:18.831Z,10.30
2022-11-08T07:31:05.696Z,10.00
2022-11-08T07:33:52.039Z,9.70
2022-11-08T07:36:38.221Z,9.50
2022-11-08T07:39:24.153Z,9.40
2022-11-08T07:42:10.009Z,9.30
2022-11-08T07:44:55.876Z,9.30
2022-11-08T07:47:42.024Z,9.40
2022-11-08T07:50:28.927Z,9.40
2022-11-08T07:53:15.256Z,9.60
2022-11-08T07:56:01.628Z,10.00
2022-11-08T07:58:47.550Z,10.40
2022-11-08T08:01:33.429Z,10.90
2022-11-08T08:04:19.568Z,11.30
2022-11-08T08:07:05.837Z,11.60
2022-11-08T08:09:51.878Z,12.00
2022-11-08T08:12:37.747Z,12.00
2022-11-08T08:15:25.001Z,12.20
2022-11-08T08:18:11.487Z,12.50
2022-11-08T08:20:57.936Z,12.90
2022-11-08T08:23:44.259Z,13.30
2022-11-08T08:26:30.357Z,13.70
2022-11-08T08:29:16.339Z,14.10
2022-11-08T08:32:02.507Z,14.10
2022-11-08T08:34:48.453Z,14.20
2022-11-08T08:37:34.315Z,14.20
2022-11-08T08:40:20.328Z,14.20
2022-11-08T08:43:06.556Z,14.50
2022-11-08T08:45:52.714Z,15.10
2022-11-08T08:48:38.944Z,15.30
2022-11-08T08:51:25.095Z,15.40
2022-11-08T08:54:11.591Z,15.40
2022-11-08T08:56:57.755Z,15.40
2022-11-08T09:02:50.301Z,16.00
2022-11-08T09:05:37.356Z,16.50
2022-11-08T09:08:24.744Z,16.70
2022-11-08T09:11:10.954Z,17.00
2022-11-08T09:13:57.017Z,17.50
2022-11-08T09:16:43.029Z,17.50
2022-11-08T09:19:28.904Z,18.10
2022-11-08T09:22:14.831Z,18.40
2022-11-08T09:25:01.570Z,18.50
2022-11-08T09:27:47.740Z,18.80
2022-11-08T09:30:33.724Z,18.70
2022-11-08T09:33:20.123Z,18.60
2022-11-08T09:36:08.840Z,18.70
2022-11-08T09:38:55.282Z,19.10
2022-11-08T09:42:18.334Z,19.40
2022-11-08T09:45:23.062Z,19.30
2022-11-08T09:48:38.797Z,18.50
2022-11-08T09:51:25.387Z,17.80
2022-11-08T09:54:25.910Z,17.20
2022-11-08T09:57:51.655Z,16.80
2022-11-08T10:00:40.264Z,16.20
2022-11-08T10:03:26.692Z,15.90
2022-11-08T10:06:38.985Z,15.60
2022-11-08T10:09:53.860Z,15.60
2022-11-08T10:13:24.163Z,16.20
2022-11-08T10:16:32.067Z,17.10
2022-11-08T10:19:36.375Z,17.40
2022-11-08T10:22:42.173Z,17.40
2022-11-08T10:25:54.949Z,17.40
2022-11-08T10:28:51.576Z,17.60
2022-11-08T10:31:39.925Z,17.70
2022-11-08T10:34:28.979Z,17.90
2022-11-08T10:37:16.684Z,17.90
2022-11-08T10:40:41.273Z,18.10
2022-11-08T10:43:36.172Z,18.00
2022-11-08T10:46:49.672Z,18.10
2022-11-08T10:49:44.727Z,18.10
2022-11-08T10:52:42.461Z,18.20
2022-11-08T10:55:36.874Z,18.30
2022-11-08T10:58:32.148Z,18.30
2022-11-08T11:01:22.632Z,18.00
2022-11-08T11:04:31.937Z,17.80
2022-11-08T11:07:30.163Z,17.90
2022-11-08T11:10:27.803Z,18.40
2022-11-08T11:13:22.026Z,18.60
2022-11-08T11:16:14.150Z,18.90
2022-11-08T11:19:03.157Z,19.50
2022-11-08T11:21:56.992Z,20.30
2022-11-08T11:24:52.464Z,21.00
2022-11-08T11:27:38.886Z,21.30
2022-11-08T11:30:32.299Z,21.20
2022-11-08T11:33:26.984Z,21.20
2022-11-08T11:36:20.511Z,21.50
2022-11-08T11:39:39.614Z,21.80
2022-11-08T11:42:45.548Z,22.40
2022-11-08T11:45:36.719Z,23.10
2022-11-08T11:48:31.316Z,23.60
2022-11-08T11:51:17.320Z,23.60
2022-11-08T11:54:06.794Z,23.80
2022-11-08T11:57:02.877Z,23.50
2022-11-08T12:00:09.552Z,23.00
2022-11-08T12:03:22.314Z,22.50
2022-11-08T12:06:08.360Z,22.00
2022-11-08T12:09:19.958Z,21.90
2022-11-08T12:12:11.950Z,22.50
2022-11-08T12:15:09.373Z,23.40
2022-11-08T12:18:01.358Z,24.00
2022-11-08T12:20:50.690Z,24.30
2022-11-08T12:23:52.226Z,24.30
2022-11-08T12:26:44.733Z,24.20
2022-11-08T12:29:38.112Z,24.20
2022-11-08T12:32:36.243Z,24.30
2022-11-08T12:35:42.012Z,24.30
2022-11-08T12:38:52.273Z,24.40
2022-11-08T12:42:09.367Z,24.30
2022-11-08T12:44:56.073Z,24.00
2022-11-08T12:48:03.535Z,23.80
2022-11-08T12:50:49.811Z,23.60
2022-11-08T12:53:35.772Z,23.60
2022-11-08T12:56:43.473Z,23.10
2022-11-08T12:59:37.439Z,22.40
2022-11-08T13:02:27.661Z,22.00
2022-11-08T13:05:25.625Z,22.40
2022-11-08T13:08:19.739Z,22.80
2022-11-08T13:11:09.120Z,23.00
2022-11-08T13:13:56.723Z,23.40
2022-11-08T13:16:44.807Z,24.00
2022-11-08T13:20:03.661Z,24.20
2022-11-08T13:22:59.108Z,24.40
2022-11-08T13:25:45.552Z,25.10
2022-11-08T13:28:40.731Z,25.30
2022-11-08T13:31:47.046Z,24.60
2022-11-08T13:34:50.603Z,24.30
2022-11-08T13:37:58.953Z,25.00
2022-11-08T13:40:52.085Z,26.20
2022-11-08T13:43:41.433Z,27.10
2022-11-08T13:46:27.719Z,27.60
2022-11-08T13:49:22.565Z,28.20
2022-11-08T13:52:44.141Z,29.10
2022-11-08T13:55:57.824Z,29.40
2022-11-08T13:58:45.739Z,29.40
2022-11-08T14:01:37.518Z,28.90
2022-11-08T14:04:40.549Z,29.00
2022-11-08T14:07:47.860Z,29.10
2022-11-08T14:10:47.479Z,28.20
2022-11-08T14:14:00.172Z,27.20
2022-11-08T14:16:52.097Z,27.40
2022-11-08T14:19:40.767Z,26.60
2022-11-08T14:22:29.622Z,25.60
2022-11-08T14:25:39.570Z,24.70
2022-11-08T14:28:34.934Z,24.20
2022-11-08T14:31:27.429Z,23.60
2022-11-08T14:34:35.080Z,23.00
2022-11-08T14:37:28.535Z,22.10
2022-11-08T14:40:27.631Z,21.50
2022-11-08T14:43:13.822Z,21.10
2022-11-08T14:46:10.022Z,20.90
2022-11-08T14:48:57.228Z,20.50
2022-11-08T14:51:44.045Z,20.10
2022-11-08T14:54:39.644Z,19.70
2022-11-08T14:57:33.122Z,19.40
2022-11-08T15:00:28.312Z,19.00
2022-11-08T15:03:19.015Z,18.80
2022-11-08T15:06:13.649Z,18.40
2022-11-08T15:09:01.797Z,18.20
2022-11-08T15:11:55.508Z,18.00
2022-11-08T15:14:50.872Z,18.00
2022-11-08T15:17:39.313Z,17.80
2022-11-08T15:20:25.806Z,17.60
2022-11-08T15:23:25.788Z,17.30
2022-11-08T15:26:25.775Z,17.00
2022-11-08T15:29:25.445Z,16.70
2022-11-08T15:32:17.761Z,16.40
2022-11-08T15:35:05.097Z,16.10
2022-11-08T15:37:52.801Z,15.90
2022-11-08T15:40:48.489Z,15.70
2022-11-08T15:43:40.740Z,15.50
2022-11-08T15:46:29.514Z,15.20
2022-11-08T15:49:22.335Z,14.90
2022-11-08T15:52:08.517Z,14.70
2022-11-08T15:54:54.412Z,14.40
2022-11-08T15:57:42.934Z,14.30
2022-11-08T16:00:38.340Z,14.20
2022-11-08T16:03:25.201Z,14.10
2022-11-08T16:06:13.355Z,14.00
2022-11-08T16:08:59.359Z,13.90
2022-11-08T16:11:46.113Z,13.70
2022-11-08T16:14:32.108Z,13.50
2022-11-08T16:17:18.161Z,13.40
2022-11-08T16:20:31.152Z,13.30
2022-11-08T16:23:18.383Z,13.20
2022-11-08T16:26:05.857Z,13.10
2022-11-08T16:28:51.947Z,13.00
2022-11-08T16:31:37.983Z,13.00
2022-11-08T16:34:23.988Z,12.90
2022-11-08T16:37:11.297Z,12.70
2022-11-08T16:39:57.441Z,12.60
2022-11-08T16:42:48.115Z,12.40
2022-11-08T16:46:03.337Z,12.20
2022-11-08T16:48:46.193Z,12.10
2022-11-08T16:51:33.936Z,12.00
2022-11-08T16:54:24.014Z,12.00
2022-11-08T16:57:35.506Z,12.00
2022-11-08T17:00:18.556Z,11.90
2022-11-08T17:03:05.112Z,11.80
2022-11-08T17:05:52.339Z,11.70
2022-11-08T17:08:38.409Z,11.70
2022-11-08T17:11:24.673Z,11.60
2022-11-08T17:14:12.523Z,11.60
2022-11-08T17:16:58.561Z,11.60
2022-11-08T17:19:44.407Z,11.50
2022-11-08T17:22:30.409Z,11.50
2022-11-08T17:25:21.887Z,11.50
2022-11-08T17:28:07.784Z,11.40
2022-11-08T17:30:53.643Z,11.40
2022-11-08T17:33:40.494Z,11.40
2022-11-08T17:36:26.407Z,11.40
2022-11-08T17:39:14.210Z,11.30
2022-11-08T17:42:00.283Z,11.20
2022-11-08T17:44:46.345Z,11.10
2022-11-08T17:47:32.231Z,11.20
2022-11-08T17:50:18.267Z,11.20
2022-11-08T17:53:04.101Z,11.10
2022-11-08T17:56:09.068Z,11.10
2022-11-08T17:58:55.293Z,10.90
2022-11-08T18:01:41.344Z,10.90
2022-11-08T18:04:28.405Z,10.90
2022-11-08T18:07:14.586Z,10.90
2022-11-08T18:10:02.686Z,10.90
2022-11-08T18:12:50.852Z,10.90
2022-11-08T18:15:36.760Z,10.90
2022-11-08T18:18:22.946Z,10.90
2022-11-08T18:21:09.344Z,10.80
2022-11-08T18:23:55.493Z,10.70
2022-11-08T18:26:41.704Z,10.60
2022-11-08T18:29:27.640Z,10.60
2022-11-08T18:32:13.813Z,10.40
2022-11-08T18:34:59.679Z,10.40
2022-11-08T18:37:45.752Z,10.50
2022-11-08T18:40:32.008Z,10.70
2022-11-08T18:43:18.294Z,10.80
2022-11-08T18:46:05.661Z,10.90
2022-11-08T18:48:51.955Z,10.90
2022-11-08T18:51:38.069Z,11.00
2022-11-08T18:54:24.397Z,11.00
2022-11-08T18:57:10.700Z,11.00
2022-11-08T19:00:00.852Z,11.00
2022-11-08T19:02:47.186Z,11.00
2022-11-08T19:05:33.255Z,11.00
2022-11-08T19:08:25.170Z,11.10
2022-11-08T19:11:12.969Z,11.00
2022-11-08T19:14:01.638Z,11.00
2022-11-08T19:16:47.768Z,11.00
2022-11-08T19:19:34.008Z,11.00
2022-11-08T19:22:19.876Z,10.90
2022-11-08T19:25:06.137Z,11.00
2022-11-08T19:27:52.066Z,10.90
2022-11-08T19:30:38.438Z,10.90
2022-11-08T19:33:27.122Z,10.80
2022-11-08T19:36:17.009Z,10.90
2022-11-08T19:39:03.278Z,10.90
2022-11-08T19:41:49.456Z,10.80
2022-11-08T19:44:35.872Z,10.80
2022-11-08T19:47:21.774Z,10.60
2022-11-08T19:50:07.959Z,10.50
2022-11-08T19:52:54.218Z,10.40
2022-11-08T19:55:40.164Z,10.40
2022-11-08T19:58:26.437Z,10.40
2022-11-08T20:01:19.313Z,10.50
2022-11-08T20:04:09.510Z,10.50
2022-11-08T20:06:55.800Z,10.50
2022-11-08T20:09:42.111Z,10.50
2022-11-08T20:12:31.710Z,10.50
2022-11-08T20:15:17.817Z,10.50
2022-11-08T20:18:04.143Z,10.50
2022-11-08T20:20:50.490Z,10.50
2022-11-08T20:23:36.849Z,10.50
2022-11-08T20:26:25.560Z,10.60
2022-11-08T20:29:12.399Z,10.60
2022-11-08T20:32:00.174Z,10.60
2022-11-08T20:34:47.081Z,10.50
2022-11-08T20:37:33.018Z,10.50
2022-11-08T20:40:19.053Z,10.50
2022-11-08T20:43:04.869Z,10.40
2022-11-08T20:45:50.850Z,10.40
2022-11-08T20:48:37.128Z,10.40
2022-11-08T20:51:23.736Z,10.40
2022-11-08T20:54:10.733Z,10.40
2022-11-08T20:56:56.513Z,10.40
2022-11-08T20:59:42.760Z,10.20
2022-11-08T21:02:29.157Z,10.10
2022-11-08T21:05:15.140Z,10.00
2022-11-08T21:08:08.150Z,10.00
2022-11-08T21:11:09.144Z,10.00
2022-11-08T21:13:55.238Z,10.00
2022-11-08T21:17:14.488Z,9.90
2022-11-08T21:19:49.326Z,9.90
2022-11-08T21:22:35.457Z,9.80
2022-11-08T21:25:21.772Z,9.60
2022-11-08T21:28:07.773Z,9.50
2022-11-08T21:30:54.381Z,9.40
2022-11-08T21:33:40.481Z,9.40
2022-11-08T21:36:27.047Z,9.40
2022-11-08T21:39:13.328Z,9.40
2022-11-08T21:41:59.369Z,9.30
2022-11-08T21:44:45.416Z,9.20
2022-11-08T21:47:31.506Z,9.10
2022-11-08T21:50:18.577Z,9.10
2022-11-08T21:53:06.392Z,9.10
2022-11-08T21:55:58.043Z,9.10
2022-11-08T21:58:44.132Z,9.10
2022-11-08T22:01:31.184Z,9.10
2022-11-08T22:04:17.616Z,8.90
2022-11-08T22:07:03.758Z,8.90
2022-11-08T22:09:49.837Z,8.80
2022-11-08T22:12:35.745Z,8.90
2022-11-08T22:15:22.304Z,8.80
2022-11-08T22:18:15.245Z,8.80
2022-11-08T22:21:22.500Z,8.80
2022-11-08T22:24:09.860Z,8.70
2022-11-08T22:26:55.878Z,8.60
2022-11-08T22:29:42.001Z,8.50
2022-11-08T22:32:28.436Z,8.50
2022-11-08T22:35:14.373Z,8.50
2022-11-08T22:38:00.372Z,8.50
2022-11-08T22:40:46.982Z,8.50
2022-11-08T22:43:35.117Z,8.50
2022-11-08T22:46:21.448Z,8.40
2022-11-08T22:49:07.525Z,8.40
2022-11-08T22:51:53.506Z,8.40
2022-11-08T22:54:39.581Z,8.40
2022-11-08T22:57:25.517Z,8.40
2022-11-08T23:00:12.922Z,8.40
2022-11-08T23:02:58.922Z,8.40
2022-11-08T23:05:52.285Z,8.40
2022-11-08T23:08:38.453Z,8.40
2022-11-08T23:11:42.923Z,8.30
2022-11-08T23:14:47.380Z,8.30
2022-11-08T23:17:33.352Z,8.30
2022-11-08T23:20:38.225Z,8.10
2022-11-08T23:23:42.723Z,8.10
2022-11-08T23:27:00.873Z,8.00
2022-11-08T23:30:05.750Z,8.00
2022-11-08T23:32:52.315Z,8.00
2022-11-08T23:35:58.495Z,7.90
2022-11-08T23:38:44.877Z,7.90
2022-11-08T23:41:49.242Z,7.90
2022-11-08T23:44:35.177Z,7.90
2022-11-08T23:47:21.174Z,7.90
2022-11-08T23:50:07.497Z,8.00
2022-11-08T23:52:53.415Z,7.90
2022-11-08T23:55:39.498Z,7.90
2022-11-08T23:58:26.626Z,7.90
